Time;durP1;ratioP1;P1;durP2;ratioP2;P2;SDS_P1;SDS_P2;PMS_P1;PMS_P2;Temp;Humidity;BMP_temperature;BMP_pressure;BME280_temperature;BME280_humidity;BME280_pressure;Samples;Min_cycle;Max_cycle;Signal;HPM_P1;HPM_P2
2023/03/02 00:03:32;;;;;;;;;;;;;;;-1.04;71.56;101128.64;1734517;82;20312;-59
2023/03/02 00:06:59;;;;;;;16.93;9.15;;;;;;;-1.03;71.63;101123.18;1729823;80;20682;-60
2023/03/02 00:10:31;;;;;;;17.60;9.70;;;;;;;-1.02;71.66;101126.74;1727231;81;21433;-58
2023/03/02 00:24:23;;;;;;;17.90;8.48;;;;;;;-0.90;71.87;101122.02;1854688;74;22681;-59
2023/03/02 00:27:52;;;;;;;15.75;8.70;;;;;;;-0.88;71.81;101109.38;1858598;76;22184;-59
2023/03/02 00:31:17;;;;;;;15.98;8.95;;;;;;;-0.92;71.80;101115.39;1737792;81;21192;-59
2023/03/02 00:35:18;;;;;;;16.20;8.98;;;;;;;-0.90;71.85;101103.20;1762425;80;21698;-60
2023/03/02 00:39:07;;;;;;;17.35;9.05;;;;;;;-0.90;71.84;101108.58;1773758;79;21394;-60
2023/03/02 00:42:41;;;;;;;15.50;7.95;;;;;;;-0.89;71.82;101106.31;1766156;80;21353;-59
2023/03/02 00:46:23;;;;;;;11.83;7.72;;;;;;;-0.91;71.74;101109.08;1681243;84;21257;-59
2023/03/02 00:50:11;;;;;;;11.48;7.03;;;;;;;-0.94;71.71;101110.60;1712085;82;21754;-60
2023/03/02 00:53:39;;;;;;;16.25;8.03;;;;;;;-0.97;71.66;101109.89;1736684;81;21192;-59
2023/03/02 00:57:00;;;;;;;14.93;8.48;;;;;;;-0.99;71.63;101105.08;1693507;82;21691;-59
2023/03/02 01:00:33;;;;;;;14.70;8.63;;;;;;;-1.02;71.61;101109.28;1720843;82;21260;-59
2023/03/02 01:14:51;;;;;;;16.95;9.83;;;;;;;-0.99;71.78;101108.64;1835399;76;28066;-59
2023/03/02 01:18:24;;;;;;;14.07;8.18;;;;;;;-0.98;71.65;101109.02;1773901;79;21189;-59
2023/03/02 01:21:48;;;;;;;12.13;7.25;;;;;;;-0.96;71.61;101107.13;1766782;80;21371;-59
2023/03/02 01:25:37;;;;;;;10.40;6.42;;;;;;;-0.94;71.62;101107.03;1765750;80;21185;-59
2023/03/02 01:29:15;;;;;;;10.68;6.08;;;;;;;-0.94;71.61;101105.69;1765331;80;21665;-58
2023/03/02 01:32:48;;;;;;;13.75;6.62;;;;;;;-0.88;71.66;101102.19;1858497;76;22683;-59
2023/03/02 01:36:07;;;;;;;13.93;6.62;;;;;;;-0.93;71.71;101100.70;1770701;80;21773;-59
2023/03/02 01:46:48;;;;;;;15.50;6.90;;;;;;;-0.86;71.80;101087.32;1885862;75;22223;-59
2023/03/02 01:50:11;;;;;;;11.95;6.20;;;;;;;-0.91;71.82;101085.36;1823844;78;21914;-60
2023/03/02 01:57:24;;;;;;;9.35;6.40;;;;;;;-0.95;71.82;101075.26;1629174;88;21271;-60
2023/03/02 02:01:00;;;;;;;10.18;5.05;;;;;;;-0.95;71.89;101070.38;1679681;85;21215;-58
2023/03/02 02:04:48;;;;;;;11.12;6.20;;;;;;;-0.95;71.90;101086.50;1666554;85;21751;-58
2023/03/02 02:08:17;;;;;;;10.88;5.90;;;;;;;-0.88;71.94;101083.84;1878177;76;22737;-58
2023/03/02 02:11:38;;;;;;;10.53;5.37;;;;;;;-0.90;72.00;101084.39;1766386;80;21209;-59
2023/03/02 02:15:49;;;;;;;10.65;5.95;;;;;;;-0.82;72.02;101080.80;1836738;78;21248;-60
2023/03/02 02:23:57;;;;;;;12.07;6.50;;;;;;;-0.70;72.02;101083.66;1756782;81;21228;-60
2023/03/02 02:31:33;;;;;;;12.55;6.10;;;;;;;-0.56;72.06;101060.91;1820283;76;22343;-59
2023/03/02 02:35:19;;;;;;;10.63;6.55;;;;;;;-0.63;72.05;101072.08;1779905;79;21233;-59
2023/03/02 02:38:40;;;;;;;10.32;6.17;;;;;;;-0.66;72.03;101065.07;1775857;81;21217;-59
2023/03/02 02:41:58;;;;;;;12.23;6.30;;;;;;;-0.70;71.95;101063.99;1760026;80;21579;-59
2023/03/02 02:45:45;;;;;;;10.25;5.25;;;;;;;-0.73;71.95;101064.17;1756689;80;21277;-59
2023/03/02 02:49:35;;;;;;;9.18;5.45;;;;;;;-0.71;71.92;101064.46;1883064;75;22731;-58
2023/03/02 02:53:19;;;;;;;11.25;5.85;;;;;;;-0.80;71.87;101065.47;1812091;78;21444;-58
2023/03/02 02:56:38;;;;;;;10.43;6.28;;;;;;;-0.83;71.88;101073.24;1833901;78;21184;-58
2023/03/02 03:00:27;;;;;;;9.85;6.25;;;;;;;-0.87;71.87;101071.66;1830297;77;21819;-59
2023/03/02 03:03:57;;;;;;;22.40;11.80;;;;;;;-0.83;71.87;101077.73;1864666;76;22287;-58
2023/03/02 03:07:50;;;;;;;13.75;7.53;;;;;;;-0.92;71.87;101080.45;1781154;78;21366;-59
2023/03/02 03:11:57;;;;;;;12.45;6.58;;;;;;;-0.94;71.90;101077.48;1807873;77;21330;-59
2023/03/02 03:15:40;;;;;;;9.90;6.37;;;;;;;-0.96;71.90;101084.75;1832584;77;21177;-58
2023/03/02 03:18:46;;;;;;;12.73;7.50;;;;;;;-0.99;71.78;101087.61;1809192;78;21340;-59
2023/03/02 03:22:49;;;;;;;13.22;7.42;;;;;;;-1.01;71.72;101080.98;1804924;77;21233;-59
2023/03/02 03:26:25;;;;;;;17.23;9.70;;;;;;;-1.05;71.68;101071.37;1780708;78;21352;-58
2023/03/02 03:29:59;;;;;;;16.80;10.53;;;;;;;-1.08;71.73;101075.58;1768369;78;21428;-60
2023/03/02 03:33:37;;;;;;;14.38;9.20;;;;;;;-1.08;71.78;101073.36;1810007;77;21343;-60
2023/03/02 03:37:32;;;;;;;15.50;8.53;;;;;;;-1.09;71.83;101064.89;1745371;79;21229;-60
2023/03/02 03:41:14;;;;;;;16.85;8.43;;;;;;;-1.09;71.81;101059.52;1817817;77;21350;-59
2023/03/02 03:44:51;;;;;;;12.65;7.28;;;;;;;-1.12;71.78;101059.70;1785993;77;21185;-61
2023/03/02 03:48:39;;;;;;;13.28;7.90;;;;;;;-1.13;71.85;101053.48;1750276;79;21217;-60
2023/03/02 03:52:06;;;;;;;12.85;6.92;;;;;;;-1.12;71.87;101057.01;1795260;77;21153;-59
2023/03/02 03:55:38;;;;;;;12.80;8.18;;;;;;;-1.12;71.93;101044.45;1786900;77;21220;-59
2023/03/02 03:59:13;;;;;;;15.70;7.50;;;;;;;-1.12;71.98;101031.49;1819180;77;21224;-60
2023/03/02 04:02:58;;;;;;;14.85;7.83;;;;;;;-1.12;71.99;101027.00;1793808;78;21172;-60
2023/03/02 04:06:48;;;;;;;12.20;6.67;;;;;;;-1.11;71.99;101041.30;1785641;77;21173;-60
2023/03/02 04:10:14;;;;;;;14.58;8.33;;;;;;;-1.06;71.94;101044.60;1828364;76;28364;-59
2023/03/02 04:17:48;;;;;;;16.73;7.28;;;;;;;-0.99;71.86;101036.10;1877187;75;22685;-59
2023/03/02 04:25:05;;;;;;;10.43;6.25;;;;;;;-1.10;71.84;101045.24;1790118;78;21176;-59
2023/03/02 04:32:40;;;;;;;15.80;7.12;;;;;;;-1.14;71.99;101045.51;1791294;79;21341;-59
2023/03/02 04:36:31;;;;;;;11.88;6.72;;;;;;;-1.15;72.03;101043.29;1694949;79;21194;-59
2023/03/02 04:40:24;;;;;;;13.50;7.78;;;;;;;-1.15;72.04;101044.63;1675713;82;21196;-60
2023/03/02 04:44:18;;;;;;;16.05;9.15;;;;;;;-1.06;72.06;101047.28;1878296;73;22300;-58
2023/03/02 04:47:55;;;;;;;17.77;7.75;;;;;;;-1.12;72.08;101038.20;1794118;77;21211;-59
2023/03/02 04:52:08;;;;;;;15.88;8.30;;;;;;;-1.07;72.14;101042.84;1769663;78;21219;-59
2023/03/02 04:55:38;;;;;;;15.00;8.20;;;;;;;-1.01;72.20;101035.78;1811484;77;21732;-59
2023/03/02 04:59:41;;;;;;;16.80;9.73;;;;;;;-0.93;72.22;101046.49;1773580;77;21160;-59
2023/03/02 05:03:05;;;;;;;17.95;10.03;;;;;;;-0.78;72.27;101047.44;1799385;77;21167;-59
2023/03/02 05:06:47;;;;;;;23.80;10.72;;;;;;;-0.66;72.31;101046.72;1795826;78;21246;-59
2023/03/02 05:15:19;;;;;;;34.43;11.35;;;;;;;-0.40;72.25;101060.36;1764361;79;21251;-59
2023/03/02 05:19:01;;;;;;;20.70;9.38;;;;;;;-0.25;72.29;101068.01;1772188;78;21381;-59
2023/03/02 06:22:57;;;;;;;18.57;9.00;;;;;;;1.14;71.93;101100.56;1760908;77;22353;-58
2023/03/02 06:30:14;;;;;;;17.02;8.53;;;;;;;1.23;71.96;101104.00;1753521;79;21465;-58
2023/03/02 06:34:04;;;;;;;21.27;9.80;;;;;;;1.36;71.92;101108.99;1873382;76;22704;-60
2023/03/02 06:37:48;;;;;;;14.20;8.28;;;;;;;1.34;71.90;101110.91;1783844;79;22012;-60
2023/03/02 06:41:43;;;;;;;24.20;9.40;;;;;;;1.32;71.81;101106.97;1787545;79;21247;-59
2023/03/02 06:45:03;;;;;;;18.85;10.00;;;;;;;1.29;71.79;101108.52;1767799;79;21205;-60
2023/03/02 06:48:48;;;;;;;21.02;8.88;;;;;;;1.27;71.80;101111.80;1801487;79;21999;-60
2023/03/02 07:00:31;;;;;;;13.45;7.55;;;;;;;1.41;72.05;101110.41;1791542;79;21347;-60
2023/03/02 07:29:59;;;;;;;15.28;7.40;;;;;;;2.36;72.03;101100.34;1741655;78;21235;-59
2023/03/02 07:41:09;;;;;;;12.73;6.15;;;;;;;2.50;71.87;101099.77;1757169;79;21300;-57
2023/03/02 07:45:26;;;;;;;16.10;7.28;;;;;;;2.57;71.91;101102.91;1810550;77;21301;-57
2023/03/02 07:49:02;;;;;;;14.35;7.45;;;;;;;2.69;71.83;101082.64;1833380;76;22260;-55
2023/03/02 08:04:48;;;;;;;12.03;6.22;;;;;;;2.63;71.71;101088.45;1686297;79;21205;-60
2023/03/02 08:12:41;;;;;;;26.77;13.20;;;;;;;2.69;71.64;101108.80;1774946;78;22203;-59
2023/03/02 08:16:27;;;;;;;20.97;11.45;;;;;;;2.75;71.64;101108.36;1737337;79;21718;-62
2023/03/02 08:20:02;;;;;;;17.52;8.25;;;;;;;2.77;71.59;101107.29;1738640;81;21213;-57
2023/03/02 08:23:57;;;;;;;16.80;10.50;;;;;;;2.78;71.53;101099.55;1699917;83;21180;-61
2023/03/02 08:49:11;;;;;;;13.95;6.42;;;;;;;3.04;71.90;101111.20;1805784;79;22535;-60
2023/03/02 08:52:46;;;;;;;16.97;9.18;;;;;;;3.07;71.91;101112.33;1722541;82;21473;-60
2023/03/02 08:56:42;;;;;;;13.50;6.75;;;;;;;3.23;72.00;101105.32;1735745;82;21364;-61
2023/03/02 09:21:04;;;;;;;10.18;5.90;;;;;;;3.94;71.65;101094.05;1617923;85;22978;-55
2023/03/02 09:24:56;;;;;;;15.18;6.60;;;;;;;4.04;71.64;101101.34;1559756;87;21310;-60
2023/03/02 09:47:19;;;;;;;15.58;7.92;;;;;;;4.43;71.24;101106.44;1807544;76;22340;-62
2023/03/02 09:54:34;;;;;;;13.48;6.87;;;;;;;4.70;71.40;101110.66;1711385;79;21335;-57
2023/03/02 09:57:50;;;;;;;17.02;7.37;;;;;;;4.90;71.33;101111.33;1688019;80;21181;-58
2023/03/02 10:01:23;;;;;;;18.17;9.13;;;;;;;5.07;71.22;101098.62;1694455;80;21283;-59
2023/03/02 10:05:00;;;;;;;18.17;8.60;;;;;;;5.29;71.20;101109.47;1680489;82;21307;-58
2023/03/02 10:12:06;;;;;;;16.30;6.58;;;;;;;5.47;70.85;101103.91;1695940;80;21270;-59
2023/03/02 10:15:54;;;;;;;13.25;6.95;;;;;;;5.54;70.68;101103.27;1686995;81;21208;-58
2023/03/02 10:24:32;;;;;;;18.30;10.38;;;;;;;5.34;70.15;101107.25;1725256;80;21385;-60
2023/03/02 10:28:08;;;;;;;17.50;9.58;;;;;;;5.19;70.10;101110.70;1714386;81;21183;-57
2023/03/02 10:31:44;;;;;;;11.18;6.10;;;;;;;5.19;70.18;101107.12;1719610;81;21282;-59
2023/03/02 10:35:50;;;;;;;10.60;5.87;;;;;;;5.31;70.31;101109.70;1714546;81;21270;-58
2023/03/02 10:39:38;;;;;;;11.75;5.28;;;;;;;5.67;70.34;101084.09;1868482;75;22257;-56
2023/03/02 10:42:50;;;;;;;17.35;8.38;;;;;;;5.71;70.26;101097.30;1800153;77;21286;-60
2023/03/02 10:46:32;;;;;;;13.75;8.25;;;;;;;5.72;70.16;101090.86;1794855;77;21292;-56
2023/03/02 10:57:59;;;;;;;11.33;5.92;;;;;;;6.15;70.02;101086.81;1683085;79;21236;-56
2023/03/02 11:04:51;;;;;;;9.28;5.08;;;;;;;6.19;69.62;101082.82;1873570;76;22253;-54
2023/03/02 11:09:10;;;;;;;8.88;4.17;;;;;;;6.06;69.63;101076.70;1807550;78;21737;-55
2023/03/02 11:12:38;;;;;;;9.08;4.95;;;;;;;6.07;69.82;101087.44;1802717;79;21208;-54
2023/03/02 11:16:45;;;;;;;9.10;5.15;;;;;;;6.03;69.76;101090.06;1784069;79;21797;-56
2023/03/02 11:20:51;;;;;;;8.85;4.60;;;;;;;5.97;69.73;101093.79;1723228;81;22111;-53
2023/03/02 11:52:21;;;;;;;9.93;5.60;;;;;;;6.37;69.19;101083.98;1674760;81;21236;31
2023/03/02 11:56:03;;;;;;;7.55;3.83;;;;;;;6.45;69.24;101086.90;1659138;85;21757;-54
2023/03/02 12:06:40;;;;;;;7.25;3.55;;;;;;;6.53;68.97;101079.42;1704157;82;21344;-54
2023/03/02 12:10:13;;;;;;;10.03;5.03;;;;;;;6.48;68.94;101085.27;1731927;82;21268;-54
2023/03/02 12:18:05;;;;;;;11.60;4.85;;;;;;;6.58;68.96;101070.38;1703822;82;21248;-55
2023/03/02 12:22:41;;;;;;;9.13;5.58;;;;;;;6.80;69.15;101075.66;1658037;85;21229;-54
2023/03/02 12:26:32;;;;;;;9.50;4.75;;;;;;;7.17;69.15;101062.72;1687110;82;21222;-53
2023/03/02 12:33:58;;;;;;;10.75;3.98;;;;;;;7.63;68.94;101055.84;1728223;78;21244;-55
2023/03/02 12:42:16;;;;;;;9.00;4.03;;;;;;;7.66;68.54;101056.39;1707051;82;21247;-56
2023/03/02 12:53:09;;;;;;;9.83;4.10;;;;;;;7.66;68.46;101049.58;1743157;80;21277;-55
2023/03/02 13:01:13;;;;;;;10.13;4.35;;;;;;;7.37;68.13;101056.32;1668313;83;21245;-56
2023/03/02 13:04:47;;;;;;;8.70;4.28;;;;;;;7.26;68.08;101043.34;1670761;83;22032;-55
2023/03/02 13:08:58;;;;;;;11.40;5.10;;;;;;;7.22;68.13;101048.20;1654391;84;21567;-56
2023/03/02 13:13:02;;;;;;;13.65;6.00;;;;;;;7.24;68.12;101035.80;1663761;84;21264;-54
2023/03/02 13:16:52;;;;;;;11.83;4.83;;;;;;;7.19;68.02;101043.52;1674680;84;21408;-54
2023/03/02 13:20:18;;;;;;;10.40;5.78;;;;;;;7.15;67.96;101038.84;1662435;85;21347;-54
2023/03/02 13:23:44;;;;;;;11.03;5.15;;;;;;;7.16;68.03;101041.95;1673104;84;22155;-54
2023/03/02 13:26:56;;;;;;;17.40;8.28;;;;;;;7.22;67.92;101033.71;1693703;84;21316;-54
2023/03/02 13:30:46;;;;;;;13.32;6.50;;;;;;;7.22;67.82;101030.50;1688747;83;21292;-53
2023/03/02 13:34:10;;;;;;;11.90;5.20;;;;;;;7.20;67.64;101025.68;1680259;84;21240;-53
2023/03/02 13:37:50;;;;;;;9.93;4.60;;;;;;;7.13;67.63;101025.89;1673717;85;21708;-53
2023/03/02 13:41:27;;;;;;;9.55;4.47;;;;;;;7.14;67.71;101024.88;1641983;85;21559;-54
2023/03/02 13:45:39;;;;;;;11.65;5.40;;;;;;;7.25;67.64;101019.81;1864565;76;22778;-54
2023/03/02 14:00:23;;;;;;;12.82;5.83;;;;;;;7.14;67.45;100997.66;1802999;76;22480;-55
2023/03/02 14:47:29;;;;;;;12.88;7.72;;;;;;;6.46;67.29;101004.80;1855416;76;28033;-54
2023/03/02 14:50:47;;;;;;;15.72;7.90;;;;;;;6.42;67.27;100997.42;1784118;79;21216;-53
2023/03/02 14:54:16;;;;;;;19.92;9.78;;;;;;;6.65;67.28;100979.92;1852071;75;22223;-54
2023/03/02 15:11:16;;;;;;;13.58;7.60;;;;;;;6.85;66.78;100980.88;1767901;77;21195;-56
2023/03/02 15:15:02;;;;;;;16.60;7.53;;;;;;;6.85;66.77;100981.72;1842284;76;22254;-57
2023/03/02 15:21:54;;;;;;;13.50;6.78;;;;;;;6.64;66.74;100985.50;1689487;84;20220;-59
2023/03/02 15:25:17;;;;;;;13.55;7.60;;;;;;;6.51;66.71;100984.37;1642943;86;21221;-56
2023/03/02 15:28:54;;;;;;;15.48;8.93;;;;;;;6.42;66.70;100991.98;1662429;86;21721;-58
2023/03/02 15:45:36;;;;;;;39.70;23.20;;;;;;;6.01;66.87;100994.69;1618188;87;21303;-57
2023/03/02 15:49:26;;;;;;;42.25;23.18;;;;;;;5.99;66.88;100987.20;1619204;88;21758;-58
2023/03/02 15:52:46;;;;;;;35.88;20.62;;;;;;;5.96;66.83;100988.82;1680776;85;21745;-58
2023/03/02 15:56:26;;;;;;;46.00;23.00;;;;;;;5.89;66.81;100989.84;1712832;83;21227;-58
2023/03/02 16:00:25;;;;;;;63.15;34.60;;;;;;;5.88;66.82;100999.48;1703455;83;21239;-58
2023/03/02 16:04:07;;;;;;;73.33;36.53;;;;;;;5.84;66.80;101000.72;1695627;84;21570;-56
2023/03/02 16:11:33;;;;;;;50.03;31.48;;;;;;;5.77;66.66;100992.71;1673923;84;22157;-59
2023/03/02 16:15:46;;;;;;;60.33;33.08;;;;;;;5.73;66.64;101007.52;1689968;81;21232;-57
2023/03/02 16:20:08;;;;;;;39.85;26.60;;;;;;;5.76;66.67;101001.83;1822211;76;22276;-59
2023/03/02 16:24:20;;;;;;;31.20;20.35;;;;;;;5.69;66.64;101005.56;1731966;81;21336;-57
2023/03/02 16:27:46;;;;;;;27.35;17.60;;;;;;;5.66;66.56;101003.10;1703575;82;21646;-57
2023/03/02 16:35:37;;;;;;;28.98;19.10;;;;;;;5.63;66.40;101005.20;1761283;78;21289;-56
2023/03/02 16:38:35;;;;;;;42.03;26.40;;;;;;;5.61;66.38;101009.94;1747643;79;21302;-57
2023/03/02 16:42:29;;;;;;;34.53;22.05;;;;;;;5.59;66.37;101010.55;1673263;81;21254;-59
2023/03/02 16:45:48;;;;;;;29.80;19.70;;;;;;;5.56;66.33;101010.33;1724767;81;21244;-60
2023/03/02 16:48:52;;;;;;;31.62;20.23;;;;;;;5.55;66.29;101008.58;1720230;81;21177;-58
2023/03/02 16:57:24;;;;;;;28.62;19.17;;;;;;;5.49;66.20;101010.45;1664321;83;21363;-57
2023/03/02 17:01:02;;;;;;;28.90;18.95;;;;;;;5.44;66.16;101011.84;1721573;77;21988;-57
2023/03/02 17:04:39;;;;;;;27.85;15.68;;;;;;;5.41;66.17;101019.73;1814401;76;22047;-57
2023/03/02 17:08:22;;;;;;;24.75;15.00;;;;;;;5.40;66.15;101023.45;1735296;81;21753;-59
2023/03/02 17:11:53;;;;;;;22.42;13.65;;;;;;;5.37;66.11;101021.48;1710968;81;21208;-57
2023/03/02 17:15:39;;;;;;;29.05;16.00;;;;;;;5.33;66.06;101018.63;1706314;77;21441;-58
2023/03/02 17:19:04;;;;;;;27.05;15.80;;;;;;;5.29;66.00;101014.47;1747612;77;21334;-59
2023/03/02 17:22:20;;;;;;;23.32;15.00;;;;;;;5.25;65.95;101021.15;1720876;78;22005;-58
2023/03/02 17:26:18;;;;;;;17.42;10.03;;;;;;;5.20;65.92;101020.14;1761164;77;21233;-57
2023/03/02 17:30:19;;;;;;;22.67;11.22;;;;;;;5.16;65.93;101017.33;1731671;77;21224;-56
2023/03/02 17:34:07;;;;;;;19.65;9.43;;;;;;;5.11;65.91;101021.39;1726595;78;21272;-59
2023/03/02 17:37:21;;;;;;;17.73;9.63;;;;;;;5.08;65.89;101025.23;1753074;77;21732;-59
2023/03/02 17:41:09;;;;;;;18.10;11.93;;;;;;;5.06;65.89;101019.06;1778726;76;21280;-60
2023/03/02 17:44:45;;;;;;;23.83;13.00;;;;;;;5.06;65.95;101023.13;1725120;77;21777;-56
2023/03/02 17:48:25;;;;;;;27.13;16.48;;;;;;;5.05;65.95;101019.19;1783233;77;21717;-57
2023/03/02 17:52:11;;;;;;;32.75;19.15;;;;;;;5.06;65.95;101016.86;1757784;80;21152;-56
2023/03/02 17:55:33;;;;;;;35.70;21.10;;;;;;;5.06;65.93;101010.08;1775465;77;21228;-57
2023/03/02 17:59:25;;;;;;;36.23;23.92;;;;;;;5.05;65.91;101011.92;1768224;78;21200;-58
2023/03/02 18:02:46;;;;;;;40.98;24.98;;;;;;;5.06;65.92;101007.37;1766530;78;21264;-60
2023/03/02 18:06:24;;;;;;;41.95;24.40;;;;;;;5.06;65.91;101007.37;1770209;78;21204;-56
2023/03/02 18:10:19;;;;;;;60.92;31.65;;;;;;;5.06;65.91;101001.42;1770246;79;21212;-59
2023/03/02 18:13:59;;;;;;;56.73;28.70;;;;;;;5.07;65.95;100998.23;1771225;79;21192;-60
2023/03/02 18:17:33;;;;;;;56.55;26.10;;;;;;;5.08;65.93;100992.67;1795902;78;21185;-56
2023/03/02 18:21:08;;;;;;;42.15;23.18;;;;;;;5.07;65.95;100990.09;1804767;78;21360;-57
2023/03/02 18:24:52;;;;;;;57.58;29.95;;;;;;;5.07;65.97;100986.89;1760606;78;22003;-60
2023/03/02 18:28:24;;;;;;;52.90;29.23;;;;;;;5.08;65.99;100994.52;1812355;77;21237;-60
2023/03/02 18:31:55;;;;;;;52.95;25.72;;;;;;;5.07;65.89;100992.31;1741904;79;21315;-59
2023/03/02 18:35:48;;;;;;;43.20;18.55;;;;;;;5.05;65.76;100990.70;1727551;81;21327;-59
2023/03/02 18:39:02;;;;;;;42.90;18.77;;;;;;;5.02;65.65;100992.31;1741658;80;21255;-59
2023/03/02 18:42:44;;;;;;;42.50;19.42;;;;;;;5.05;65.63;100988.86;1834138;77;22320;-57
2023/03/02 18:46:02;;;;;;;37.33;19.62;;;;;;;4.99;65.67;100997.99;1814969;77;21374;-60
2023/03/02 18:49:41;;;;;;;62.15;28.83;;;;;;;4.98;65.68;100986.78;1810728;78;21323;-60
2023/03/02 18:53:02;;;;;;;64.70;30.27;;;;;;;4.96;65.66;100990.11;1808821;78;21242;-59
2023/03/02 18:56:43;;;;;;;46.02;23.00;;;;;;;4.96;65.78;100992.34;1806076;78;21355;-56
2023/03/02 19:00:31;;;;;;;36.38;18.82;;;;;;;4.96;65.68;100995.05;1768201;77;21873;-57
2023/03/02 19:03:55;;;;;;;49.75;28.87;;;;;;;4.92;65.44;100996.75;1822990;77;21173;-56
2023/03/02 19:07:42;;;;;;;50.60;27.32;;;;;;;4.89;65.34;100995.65;1824109;78;21165;-55
2023/03/02 19:11:25;;;;;;;30.68;16.35;;;;;;;4.87;65.39;100988.16;1741921;76;21299;-59
2023/03/02 19:14:50;;;;;;;29.35;13.30;;;;;;;4.88;65.46;100988.02;1776647;76;21741;-60
2023/03/02 19:18:30;;;;;;;23.62;13.10;;;;;;;4.86;65.46;100994.55;1811689;77;21216;-57
2023/03/02 19:22:00;;;;;;;21.95;11.43;;;;;;;4.85;65.37;100999.61;1820264;77;21650;-59
2023/03/02 19:25:38;;;;;;;24.90;10.88;;;;;;;4.83;65.41;100998.87;1810577;77;22037;-59
2023/03/02 19:29:12;;;;;;;25.45;13.03;;;;;;;4.85;65.46;101003.20;1886027;76;22616;-57
2023/03/02 19:32:37;;;;;;;37.48;17.17;;;;;;;4.79;65.43;101009.61;1845205;78;21867;-59
2023/03/02 19:35:55;;;;;;;35.17;21.45;;;;;;;4.75;65.31;101010.83;1845373;77;21168;-60
2023/03/02 19:39:15;;;;;;;33.05;19.65;;;;;;;4.73;65.35;101012.78;1823921;77;21160;-57
2023/03/02 19:42:44;;;;;;;78.05;42.62;;;;;;;4.70;65.43;101012.55;1827218;77;21227;-56
2023/03/02 19:46:27;;;;;;;42.00;23.92;;;;;;;4.64;65.41;101008.98;1835008;78;21335;-57
2023/03/02 19:49:54;;;;;;;34.70;17.77;;;;;;;4.52;65.41;101001.33;1845350;77;21863;-56
2023/03/02 19:53:28;;;;;;;28.30;14.47;;;;;;;4.38;65.42;101002.92;1788386;79;21519;-58
2023/03/02 19:57:06;;;;;;;26.10;12.53;;;;;;;4.25;65.46;101000.80;1751287;80;21165;-58
2023/03/02 20:00:11;;;;;;;22.40;10.48;;;;;;;4.14;65.53;101000.79;1774969;80;21185;-57
2023/03/02 20:03:56;;;;;;;17.20;10.18;;;;;;;4.03;65.54;101002.12;1796078;79;21611;-59
2023/03/02 20:07:53;;;;;;;24.75;14.35;;;;;;;3.92;65.57;100993.97;1884774;76;22222;-57
2023/03/02 20:11:46;;;;;;;28.98;14.25;;;;;;;3.81;65.61;100988.99;1845319;77;21836;-56
2023/03/02 20:15:44;;;;;;;28.65;14.25;;;;;;;3.66;65.56;100992.41;1844513;78;21326;-59
2023/03/02 20:26:25;;;;;;;37.48;16.50;;;;;;;3.28;65.49;100989.52;1804914;79;21353;-56
2023/03/02 20:30:34;;;;;;;34.83;15.93;;;;;;;3.20;65.52;100981.11;1761839;80;21351;-57
2023/03/02 20:34:06;;;;;;;28.57;13.30;;;;;;;3.08;65.53;100980.17;1708532;82;21223;-57
2023/03/02 20:37:51;;;;;;;25.85;12.10;;;;;;;3.01;65.62;100973.52;1677922;83;21328;-60
2023/03/02 20:41:08;;;;;;;45.28;22.25;;;;;;;2.91;65.58;100974.67;1646963;86;21744;-60
2023/03/02 20:45:07;;;;;;;28.32;14.53;;;;;;;2.81;65.51;100965.50;1645639;86;21264;-57
2023/03/02 20:48:31;;;;;;;26.80;12.78;;;;;;;2.72;65.50;100963.96;1671064;84;21262;-59
2023/03/02 20:51:53;;;;;;;21.23;10.88;;;;;;;2.61;65.49;100967.94;1675178;85;21224;-58
2023/03/02 20:55:29;;;;;;;17.75;9.00;;;;;;;2.52;65.46;100966.75;1672462;84;21216;-57
2023/03/02 20:59:06;;;;;;;22.93;11.08;;;;;;;2.43;65.49;100959.31;1696939;84;21844;-59
2023/03/02 21:02:46;;;;;;;20.62;11.80;;;;;;;2.35;65.54;100954.08;1645954;85;21218;-59
2023/03/02 21:06:06;;;;;;;23.70;13.35;;;;;;;2.27;65.57;100951.94;1691198;83;21721;-56
2023/03/02 21:09:29;;;;;;;21.90;11.40;;;;;;;2.22;65.63;100958.66;1708110;82;21363;-57
2023/03/02 21:12:44;;;;;;;23.75;12.85;;;;;;;2.15;65.67;100943.84;1674893;84;21408;-57
2023/03/02 21:16:11;;;;;;;27.90;13.95;;;;;;;2.15;65.72;100937.09;1835033;76;22238;-56
2023/03/02 21:19:29;;;;;;;25.25;12.28;;;;;;;2.06;65.76;100937.75;1763456;79;21499;-59
2023/03/02 21:23:09;;;;;;;23.92;12.50;;;;;;;2.06;65.82;100929.14;1829535;76;22700;-59
2023/03/02 21:26:30;;;;;;;20.40;11.68;;;;;;;1.96;65.83;100926.73;1776729;77;21169;-59
2023/03/02 21:33:22;;;;;;;22.13;13.10;;;;;;;1.87;65.85;100925.17;1764747;79;21315;-55
2023/03/02 21:36:52;;;;;;;27.80;14.80;;;;;;;1.83;65.93;100916.89;1786257;77;21311;-57
2023/03/02 21:43:44;;;;;;;51.13;29.27;;;;;;;1.72;65.90;100908.22;1785542;78;21220;-59
2023/03/02 21:47:04;;;;;;;65.12;31.23;;;;;;;1.68;65.95;100910.77;1797552;77;21334;-59
2023/03/02 21:50:32;;;;;;;66.42;31.90;;;;;;;1.65;66.01;100904.71;1801376;78;21196;-59
2023/03/02 21:54:14;;;;;;;77.65;35.38;;;;;;;1.62;66.11;100908.47;1785201;78;21155;-56
2023/03/02 21:57:38;;;;;;;50.98;24.12;;;;;;;1.62;66.17;100908.97;1774745;79;21420;-56
2023/03/02 22:01:09;;;;;;;33.33;17.15;;;;;;;1.58;66.17;100908.31;1796472;78;21752;-58
2023/03/02 22:04:42;;;;;;;30.25;15.23;;;;;;;1.58;66.26;100904.75;1773114;79;21431;-59
2023/03/02 22:08:10;;;;;;;29.35;15.03;;;;;;;1.57;66.33;100903.03;1799596;78;21410;-59
2023/03/02 22:11:42;;;;;;;25.60;13.88;;;;;;;1.57;66.36;100901.68;1798605;78;21338;-60
2023/03/02 22:15:04;;;;;;;21.15;11.78;;;;;;;1.53;66.31;100904.59;1794840;77;21339;-57
2023/03/02 22:18:34;;;;;;;22.45;12.30;;;;;;;1.49;66.26;100907.11;1751024;77;21733;-57
2023/03/02 22:22:08;;;;;;;31.68;13.22;;;;;;;1.44;66.23;100898.46;1742603;77;21220;-61
2023/03/02 22:25:32;;;;;;;27.85;14.25;;;;;;;1.40;66.24;100899.66;1739908;77;21207;-59
2023/03/02 22:28:55;;;;;;;29.82;13.90;;;;;;;1.37;66.24;100897.65;1704603;79;21185;-60
2023/03/02 22:31:49;;;;;;;26.10;13.00;;;;;;;1.34;66.33;100898.73;1722702;79;21825;-57
2023/03/02 22:35:25;;;;;;;25.57;13.60;;;;;;;1.32;66.34;100900.66;1734885;79;21728;-56
2023/03/02 22:38:25;;;;;;;26.00;14.50;;;;;;;1.31;66.36;100893.56;1693491;79;21187;-56
2023/03/02 22:41:48;;;;;;;38.60;19.45;;;;;;;1.29;66.35;100893.27;1721033;77;21729;-57
2023/03/02 22:45:19;;;;;;;31.77;16.40;;;;;;;1.27;66.41;100898.77;1740347;78;21425;-59
2023/03/02 22:49:10;;;;;;;28.52;13.30;;;;;;;1.25;66.49;100893.11;1730166;79;21874;-60
2023/03/02 22:52:43;;;;;;;25.35;12.23;;;;;;;1.23;66.50;100895.91;1715812;78;21267;-57
2023/03/02 22:56:17;;;;;;;19.02;10.72;;;;;;;1.22;66.57;100890.12;1732458;77;21393;-58
2023/03/02 22:59:46;;;;;;;21.65;11.55;;;;;;;1.22;66.58;100890.63;1745670;77;21208;-59
2023/03/02 23:03:04;;;;;;;21.15;12.05;;;;;;;1.19;66.56;100887.63;1724690;78;21256;-59
2023/03/02 23:06:33;;;;;;;20.35;11.90;;;;;;;1.16;66.58;100881.11;1691308;76;21783;-60
2023/03/02 23:10:03;;;;;;;17.17;10.20;;;;;;;1.15;66.61;100878.52;1667801;82;21299;-57
2023/03/02 23:13:48;;;;;;;19.98;11.12;;;;;;;1.11;66.63;100879.70;1702809;78;21410;-56
2023/03/02 23:17:19;;;;;;;20.25;11.43;;;;;;;1.10;66.70;100877.48;1726495;78;21714;-59
2023/03/02 23:21:06;;;;;;;21.07;12.30;;;;;;;1.09;66.71;100886.55;1722621;79;21312;-57
2023/03/02 23:24:26;;;;;;;23.75;12.60;;;;;;;1.07;66.71;100884.44;1725841;79;21345;-59
2023/03/02 23:27:51;;;;;;;28.23;12.60;;;;;;;1.10;66.70;100882.00;1858599;76;22156;-59
2023/03/02 23:31:31;;;;;;;20.85;11.08;;;;;;;1.02;66.72;100878.48;1719984;81;21358;-59
2023/03/02 23:34:59;;;;;;;18.42;10.63;;;;;;;1.00;66.77;100875.53;1725143;82;21205;-56
2023/03/02 23:38:45;;;;;;;18.25;10.90;;;;;;;0.99;66.81;100865.22;1721974;82;21550;-59
2023/03/02 23:42:19;;;;;;;19.85;11.03;;;;;;;1.00;66.90;100862.89;1692522;85;21450;-58
2023/03/02 23:45:52;;;;;;;30.30;14.63;;;;;;;1.00;66.94;100861.55;1666885;84;21356;-59
2023/03/02 23:50:00;;;;;;;29.35;16.70;;;;;;;1.01;66.93;100857.03;1678538;84;22204;-57
2023/03/02 23:53:40;;;;;;;31.70;16.57;;;;;;;1.00;66.94;100858.01;1634816;85;21354;-57
2023/03/02 23:57:07;;;;;;;27.73;16.15;;;;;;;0.97;66.92;100855.48;1685674;85;21788;-58
